sensor_id;sensor_type;location;lat;lon;timestamp;pressure;altitude;pressure_sealevel;temperature;humidity
77685;BME280;66844;46.092;18.268;2023-07-29T00:00:11;98909.72;;;20.24;77.07
77685;BME280;66844;46.092;18.268;2023-07-29T00:00:45;98907.84;;;20.25;77.36
77685;BME280;66844;46.092;18.268;2023-07-29T00:01:17;98899.22;;;20.21;77.96
77685;BME280;66844;46.092;18.268;2023-07-29T00:01:48;98902.09;;;20.20;78.02
77685;BME280;66844;46.092;18.268;2023-07-29T00:02:21;98904.63;;;20.21;77.13
77685;BME280;66844;46.092;18.268;2023-07-29T00:02:54;98903.63;;;20.22;77.88
77685;BME280;66844;46.092;18.268;2023-07-29T00:03:26;98903.09;;;20.19;78.07
77685;BME280;66844;46.092;18.268;2023-07-29T00:03:58;98902.44;;;20.17;78.10
77685;BME280;66844;46.092;18.268;2023-07-29T00:04:30;98908.50;;;20.19;77.23
77685;BME280;66844;46.092;18.268;2023-07-29T00:05:02;98901.59;;;20.16;77.72
77685;BME280;66844;46.092;18.268;2023-07-29T00:05:34;98901.41;;;20.18;78.08
77685;BME280;66844;46.092;18.268;2023-07-29T00:06:06;98905.13;;;20.17;77.88
77685;BME280;66844;46.092;18.268;2023-07-29T00:06:38;98905.28;;;20.15;78.62
77685;BME280;66844;46.092;18.268;2023-07-29T00:07:10;98901.94;;;20.13;79.09
77685;BME280;66844;46.092;18.268;2023-07-29T00:07:42;98907.63;;;20.10;79.00
77685;BME280;66844;46.092;18.268;2023-07-29T00:08:14;98900.69;;;20.08;78.86
77685;BME280;66844;46.092;18.268;2023-07-29T00:08:46;98905.09;;;20.09;78.99
77685;BME280;66844;46.092;18.268;2023-07-29T00:09:18;98899.69;;;20.09;79.13
77685;BME280;66844;46.092;18.268;2023-07-29T00:09:50;98899.84;;;20.07;79.31
77685;BME280;66844;46.092;18.268;2023-07-29T00:10:22;98899.19;;;20.05;79.38
77685;BME280;66844;46.092;18.268;2023-07-29T00:10:54;98905.72;;;20.03;79.25
77685;BME280;66844;46.092;18.268;2023-07-29T00:11:26;98902.88;;;20.04;79.48
77685;BME280;66844;46.092;18.268;2023-07-29T00:11:58;98902.03;;;20.04;79.56
77685;BME280;66844;46.092;18.268;2023-07-29T00:12:30;98901.84;;;19.97;79.76
77685;BME280;66844;46.092;18.268;2023-07-29T00:13:02;98903.22;;;20.01;79.81
77685;BME280;66844;46.092;18.268;2023-07-29T00:13:34;98901.00;;;19.97;79.90
77685;BME280;66844;46.092;18.268;2023-07-29T00:14:06;98897.28;;;19.98;79.79
77685;BME280;66844;46.092;18.268;2023-07-29T00:14:37;98898.63;;;19.94;80.03
77685;BME280;66844;46.092;18.268;2023-07-29T00:15:09;98898.94;;;19.91;80.67
77685;BME280;66844;46.092;18.268;2023-07-29T00:15:41;98900.28;;;19.87;80.21
77685;BME280;66844;46.092;18.268;2023-07-29T00:16:13;98905.19;;;19.91;80.55
77685;BME280;66844;46.092;18.268;2023-07-29T00:16:47;98901.31;;;19.94;80.20
77685;BME280;66844;46.092;18.268;2023-07-29T00:17:19;98902.50;;;19.91;80.27
77685;BME280;66844;46.092;18.268;2023-07-29T00:17:52;98898.09;;;19.90;80.80
77685;BME280;66844;46.092;18.268;2023-07-29T00:18:24;98904.16;;;19.92;80.32
77685;BME280;66844;46.092;18.268;2023-07-29T00:18:56;98901.47;;;19.92;80.08
77685;BME280;66844;46.092;18.268;2023-07-29T00:19:28;98900.63;;;19.92;80.57
77685;BME280;66844;46.092;18.268;2023-07-29T00:20:00;98903.31;;;19.92;80.35
77685;BME280;66844;46.092;18.268;2023-07-29T00:20:32;98894.69;;;19.88;80.67
77685;BME280;66844;46.092;18.268;2023-07-29T00:21:04;98896.25;;;19.91;80.55
77685;BME280;66844;46.092;18.268;2023-07-29T00:21:36;98901.47;;;19.92;80.47
77685;BME280;66844;46.092;18.268;2023-07-29T00:22:08;98898.63;;;19.94;80.57
77685;BME280;66844;46.092;18.268;2023-07-29T00:22:40;98895.75;;;19.95;80.40
77685;BME280;66844;46.092;18.268;2023-07-29T00:23:12;98901.31;;;19.94;80.20
77685;BME280;66844;46.092;18.268;2023-07-29T00:23:45;98900.47;;;19.93;80.14
77685;BME280;66844;46.092;18.268;2023-07-29T00:24:17;98903.19;;;19.93;80.67
77685;BME280;66844;46.092;18.268;2023-07-29T00:24:53;98901.31;;;19.94;80.62
77685;BME280;66844;46.092;18.268;2023-07-29T00:25:29;98910.28;;;19.94;80.41
77685;BME280;66844;46.092;18.268;2023-07-29T00:26:01;98912.97;;;19.94;80.30
77685;BME280;66844;46.092;18.268;2023-07-29T00:26:32;98909.41;;;19.94;80.44
77685;BME280;66844;46.092;18.268;2023-07-29T00:27:05;98902.19;;;19.94;80.49
77685;BME280;66844;46.092;18.268;2023-07-29T00:27:37;98914.97;;;19.92;80.93
77685;BME280;66844;46.092;18.268;2023-07-29T00:28:09;98907.56;;;19.94;80.59
77685;BME280;66844;46.092;18.268;2023-07-29T00:28:41;98913.81;;;19.95;80.22
77685;BME280;66844;46.092;18.268;2023-07-29T00:29:13;98906.72;;;19.94;80.40
77685;BME280;66844;46.092;18.268;2023-07-29T00:29:45;98901.81;;;19.89;80.84
77685;BME280;66844;46.092;18.268;2023-07-29T00:30:17;98902.50;;;19.91;80.76
77685;BME280;66844;46.092;18.268;2023-07-29T00:30:49;98906.19;;;19.90;80.80
77685;BME280;66844;46.092;18.268;2023-07-29T00:31:21;98904.84;;;19.86;81.14
77685;BME280;66844;46.092;18.268;2023-07-29T00:31:53;98909.53;;;19.84;81.09
77685;BME280;66844;46.092;18.268;2023-07-29T00:32:29;98902.28;;;19.84;80.75
77685;BME280;66844;46.092;18.268;2023-07-29T00:33:01;98895.03;;;19.85;80.59
77685;BME280;66844;46.092;18.268;2023-07-29T00:33:33;98904.97;;;19.84;80.89
77685;BME280;66844;46.092;18.268;2023-07-29T00:34:05;98907.69;;;19.84;80.51
77685;BME280;66844;46.092;18.268;2023-07-29T00:34:36;98901.44;;;19.84;80.46
77685;BME280;66844;46.092;18.268;2023-07-29T00:35:09;98903.97;;;19.85;80.22
77685;BME280;66844;46.092;18.268;2023-07-29T00:35:41;98899.06;;;19.81;80.97
77685;BME280;66844;46.092;18.268;2023-07-29T00:36:13;98895.34;;;19.82;80.87
77685;BME280;66844;46.092;18.268;2023-07-29T00:36:45;98900.91;;;19.80;81.04
77685;BME280;66844;46.092;18.268;2023-07-29T00:37:17;98898.38;;;19.79;81.12
77685;BME280;66844;46.092;18.268;2023-07-29T00:37:49;98898.53;;;19.77;81.50
77685;BME280;66844;46.092;18.268;2023-07-29T00:38:21;98897.88;;;19.75;81.55
77685;BME280;66844;46.092;18.268;2023-07-29T00:38:53;98899.38;;;19.78;81.38
77685;BME280;66844;46.092;18.268;2023-07-29T00:39:28;98893.00;;;19.79;80.87
77685;BME280;66844;46.092;18.268;2023-07-29T00:40:00;98893.00;;;19.79;80.86
77685;BME280;66844;46.092;18.268;2023-07-29T00:40:35;98887.59;;;19.79;80.79
77685;BME280;66844;46.092;18.268;2023-07-29T00:41:08;98890.28;;;19.79;80.76
77685;BME280;66844;46.092;18.268;2023-07-29T00:41:40;98892.28;;;19.77;80.73
77685;BME280;66844;46.092;18.268;2023-07-29T00:42:12;98885.38;;;19.74;80.38
77685;BME280;66844;46.092;18.268;2023-07-29T00:42:44;98895.69;;;19.79;79.76
77685;BME280;66844;46.092;18.268;2023-07-29T00:43:16;98898.06;;;19.82;79.68
77685;BME280;66844;46.092;18.268;2023-07-29T00:43:48;98894.50;;;19.81;79.46
77685;BME280;66844;46.092;18.268;2023-07-29T00:44:20;98888.97;;;19.83;79.58
77685;BME280;66844;46.092;18.268;2023-07-29T00:44:51;98893.84;;;19.88;79.07
77685;BME280;66844;46.092;18.268;2023-07-29T00:45:25;98891.16;;;19.88;78.11
77685;BME280;66844;46.092;18.268;2023-07-29T00:45:59;98893.69;;;19.89;78.19
77685;BME280;66844;46.092;18.268;2023-07-29T00:46:34;98886.59;;;19.88;78.02
77685;BME280;66844;46.092;18.268;2023-07-29T00:47:11;98887.78;;;19.85;78.11
77685;BME280;66844;46.092;18.268;2023-07-29T00:47:45;98898.25;;;19.89;77.61
77685;BME280;66844;46.092;18.268;2023-07-29T00:48:17;98894.03;;;19.86;78.88
77685;BME280;66844;46.092;18.268;2023-07-29T00:48:50;98891.81;;;19.81;79.46
77685;BME280;66844;46.092;18.268;2023-07-29T00:49:22;98893.84;;;19.79;79.79
77685;BME280;66844;46.092;18.268;2023-07-29T00:49:54;98893.66;;;19.81;79.75
77685;BME280;66844;46.092;18.268;2023-07-29T00:50:28;98898.72;;;19.76;80.13
77685;BME280;66844;46.092;18.268;2023-07-29T00:51:01;98898.53;;;19.77;80.53
77685;BME280;66844;46.092;18.268;2023-07-29T00:51:33;98895.84;;;19.77;78.71
77685;BME280;66844;46.092;18.268;2023-07-29T00:52:05;98901.94;;;19.88;73.62
77685;BME280;66844;46.092;18.268;2023-07-29T00:52:37;98894.88;;;19.87;78.15
77685;BME280;66844;46.092;18.268;2023-07-29T00:53:09;98891.66;;;19.83;78.22
77685;BME280;66844;46.092;18.268;2023-07-29T00:53:41;98890.63;;;19.84;78.57
77685;BME280;66844;46.092;18.268;2023-07-29T00:54:14;98894.03;;;19.86;76.79
77685;BME280;66844;46.092;18.268;2023-07-29T00:54:45;98889.00;;;19.91;74.92
77685;BME280;66844;46.092;18.268;2023-07-29T00:55:18;98890.34;;;19.95;75.14
77685;BME280;66844;46.092;18.268;2023-07-29T00:55:50;98886.66;;;19.96;75.64
77685;BME280;66844;46.092;18.268;2023-07-29T00:56:22;98879.38;;;19.97;75.35
77685;BME280;66844;46.092;18.268;2023-07-29T00:56:54;98882.94;;;19.97;75.09
77685;BME280;66844;46.092;18.268;2023-07-29T00:57:26;98882.13;;;20.05;72.26
77685;BME280;66844;46.092;18.268;2023-07-29T00:58:00;98891.28;;;20.12;71.09
77685;BME280;66844;46.092;18.268;2023-07-29T00:58:32;98887.91;;;20.18;71.87
77685;BME280;66844;46.092;18.268;2023-07-29T00:59:04;98884.91;;;20.21;70.96
77685;BME280;66844;46.092;18.268;2023-07-29T00:59:36;98886.22;;;20.17;73.10
77685;BME280;66844;46.092;18.268;2023-07-29T01:00:09;98885.56;;;20.23;70.91
77685;BME280;66844;46.092;18.268;2023-07-29T01:00:41;98884.38;;;20.25;70.40
77685;BME280;66844;46.092;18.268;2023-07-29T01:01:13;98881.59;;;20.35;68.77
77685;BME280;66844;46.092;18.268;2023-07-29T01:01:45;98882.97;;;20.39;70.43
77685;BME280;66844;46.092;18.268;2023-07-29T01:02:17;98873.63;;;20.33;71.44
77685;BME280;66844;46.092;18.268;2023-07-29T01:02:49;98878.56;;;20.38;70.63
77685;BME280;66844;46.092;18.268;2023-07-29T01:03:22;98884.31;;;20.43;69.21
77685;BME280;66844;46.092;18.268;2023-07-29T01:03:54;98882.94;;;20.47;69.00
77685;BME280;66844;46.092;18.268;2023-07-29T01:04:27;98887.69;;;20.45;69.66
77685;BME280;66844;46.092;18.268;2023-07-29T01:05:00;98888.19;;;20.41;71.53
77685;BME280;66844;46.092;18.268;2023-07-29T01:05:39;98891.22;;;20.38;72.46
77685;BME280;66844;46.092;18.268;2023-07-29T01:07:23;98889.19;;;20.31;73.66
77685;BME280;66844;46.092;18.268;2023-07-29T01:09:03;98888.78;;;20.26;73.72
77685;BME280;66844;46.092;18.268;2023-07-29T01:09:38;98884.56;;;20.24;73.23
77685;BME280;66844;46.092;18.268;2023-07-29T01:10:46;98884.81;;;20.39;70.04
77685;BME280;66844;46.092;18.268;2023-07-29T01:13:23;98888.19;;;20.41;70.12
77685;BME280;66844;46.092;18.268;2023-07-29T01:14:09;98885.31;;;20.42;68.79
77685;BME280;66844;46.092;18.268;2023-07-29T01:14:55;98889.06;;;20.49;68.14
77685;BME280;66844;46.092;18.268;2023-07-29T01:16:17;98890.25;;;20.47;71.03
77685;BME280;66844;46.092;18.268;2023-07-29T01:16:56;98890.38;;;20.45;69.57
77685;BME280;66844;46.092;18.268;2023-07-29T01:17:53;98889.19;;;20.48;70.32
77685;BME280;66844;46.092;18.268;2023-07-29T01:18:29;98887.69;;;20.45;69.90
77685;BME280;66844;46.092;18.268;2023-07-29T01:19:06;98886.16;;;20.43;70.33
77685;BME280;66844;46.092;18.268;2023-07-29T01:20:17;98888.13;;;20.24;73.03
77685;BME280;66844;46.092;18.268;2023-07-29T01:20:59;98884.56;;;20.24;72.51
77685;BME280;66844;46.092;18.268;2023-07-29T01:21:33;98894.53;;;20.23;72.56
77685;BME280;66844;46.092;18.268;2023-07-29T01:22:07;98891.63;;;20.25;71.99
77685;BME280;66844;46.092;18.268;2023-07-29T01:22:41;98888.13;;;20.24;70.23
77685;BME280;66844;46.092;18.268;2023-07-29T01:23:13;98886.28;;;20.33;67.31
77685;BME280;66844;46.092;18.268;2023-07-29T01:23:45;98888.03;;;20.42;67.45
77685;BME280;66844;46.092;18.268;2023-07-29T01:24:17;98890.88;;;20.41;70.27
77685;BME280;66844;46.092;18.268;2023-07-29T01:24:49;98896.78;;;20.36;70.91
77685;BME280;66844;46.092;18.268;2023-07-29T01:25:21;98894.06;;;20.28;71.55
77685;BME280;66844;46.092;18.268;2023-07-29T01:25:52;98887.78;;;20.27;71.57
77685;BME280;66844;46.092;18.268;2023-07-29T01:26:25;98893.75;;;20.31;69.83
77685;BME280;66844;46.092;18.268;2023-07-29T01:26:56;98886.78;;;20.28;70.19
77685;BME280;66844;46.092;18.268;2023-07-29T01:27:29;98889.00;;;20.33;69.64
77685;BME280;66844;46.092;18.268;2023-07-29T01:28:01;98893.06;;;20.37;69.55
77685;BME280;66844;46.092;18.268;2023-07-29T01:28:33;98890.22;;;20.39;69.44
77685;BME280;66844;46.092;18.268;2023-07-29T01:29:06;98897.47;;;20.38;69.60
77685;BME280;66844;46.092;18.268;2023-07-29T01:29:38;98893.25;;;20.36;69.89
77685;BME280;66844;46.092;18.268;2023-07-29T01:30:10;98892.41;;;20.35;69.48
77685;BME280;66844;46.092;18.268;2023-07-29T01:30:43;98901.00;;;20.30;72.14
77685;BME280;66844;46.092;18.268;2023-07-29T01:31:33;98894.06;;;20.28;72.54
77685;BME280;66844;46.092;18.268;2023-07-29T01:32:19;98899.59;;;20.26;71.03
77685;BME280;66844;46.092;18.268;2023-07-29T01:33:59;98902.00;;;20.29;70.42
77685;BME280;66844;46.092;18.268;2023-07-29T01:34:41;98897.22;;;20.23;72.23
77685;BME280;66844;46.092;18.268;2023-07-29T01:35:28;98893.63;;;20.15;72.88
77685;BME280;66844;46.092;18.268;2023-07-29T01:36:08;98894.97;;;20.11;72.69
77685;BME280;66844;46.092;18.268;2023-07-29T01:36:45;98897.53;;;20.12;72.51
77685;BME280;66844;46.092;18.268;2023-07-29T01:37:23;98900.75;;;20.16;71.98
77685;BME280;66844;46.092;18.268;2023-07-29T01:38:09;98890.31;;;20.21;70.46
77685;BME280;66844;46.092;18.268;2023-07-29T01:38:44;98889.78;;;20.25;68.56
77685;BME280;66844;46.092;18.268;2023-07-29T01:39:21;98886.91;;;20.19;71.94
77685;BME280;66844;46.092;18.268;2023-07-29T01:39:56;98896.53;;;20.13;72.35
77685;BME280;66844;46.092;18.268;2023-07-29T01:40:29;98896.34;;;20.15;72.15
77685;BME280;66844;46.092;18.268;2023-07-29T01:41:03;98894.50;;;20.15;71.40
77685;BME280;66844;46.092;18.268;2023-07-29T01:41:36;98891.13;;;20.13;71.58
77685;BME280;66844;46.092;18.268;2023-07-29T01:42:08;98897.53;;;20.12;72.22
77685;BME280;66844;46.092;18.268;2023-07-29T01:42:40;98895.66;;;20.13;72.18
77685;BME280;66844;46.092;18.268;2023-07-29T01:43:13;98902.75;;;20.14;71.70
77685;BME280;66844;46.092;18.268;2023-07-29T01:43:46;98898.03;;;20.16;70.98
77685;BME280;66844;46.092;18.268;2023-07-29T01:44:19;98902.09;;;20.20;69.61
77685;BME280;66844;46.092;18.268;2023-07-29T01:44:51;98893.16;;;20.19;70.15
77685;BME280;66844;46.092;18.268;2023-07-29T01:45:24;98898.38;;;20.13;72.04
77685;BME280;66844;46.092;18.268;2023-07-29T01:45:57;98893.97;;;20.12;69.91
77685;BME280;66844;46.092;18.268;2023-07-29T01:46:33;98898.03;;;20.16;69.71
77685;BME280;66844;46.092;18.268;2023-07-29T01:47:05;98890.44;;;20.19;69.90
77685;BME280;66844;46.092;18.268;2023-07-29T01:47:37;98892.31;;;20.19;70.75
77685;BME280;66844;46.092;18.268;2023-07-29T01:48:12;98893.50;;;20.16;71.52
77685;BME280;66844;46.092;18.268;2023-07-29T01:48:44;98901.75;;;20.15;71.74
77685;BME280;66844;46.092;18.268;2023-07-29T01:49:16;98898.19;;;20.14;70.47
77685;BME280;66844;46.092;18.268;2023-07-29T01:49:48;98891.13;;;20.13;71.45
77685;BME280;66844;46.092;18.268;2023-07-29T01:50:19;98891.41;;;20.10;71.09
77685;BME280;66844;46.092;18.268;2023-07-29T01:50:51;98890.09;;;20.14;69.72
77685;BME280;66844;46.092;18.268;2023-07-29T01:51:23;98890.94;;;20.15;70.33
77685;BME280;66844;46.092;18.268;2023-07-29T01:51:55;98891.28;;;20.12;71.45
77685;BME280;66844;46.092;18.268;2023-07-29T01:52:27;98893.59;;;20.07;72.20
77685;BME280;66844;46.092;18.268;2023-07-29T01:53:00;98891.09;;;20.05;72.09
77685;BME280;66844;46.092;18.268;2023-07-29T01:53:32;98891.22;;;20.04;71.26
77685;BME280;66844;46.092;18.268;2023-07-29T01:54:04;98891.72;;;19.99;72.37
77685;BME280;66844;46.092;18.268;2023-07-29T01:54:36;98886.16;;;20.01;72.67
77685;BME280;66844;46.092;18.268;2023-07-29T01:55:08;98886.50;;;19.98;72.54
77685;BME280;66844;46.092;18.268;2023-07-29T01:55:42;98890.03;;;19.98;72.51
77685;BME280;66844;46.092;18.268;2023-07-29T01:56:16;98887.50;;;19.97;72.86
77685;BME280;66844;46.092;18.268;2023-07-29T01:56:48;98884.94;;;19.95;73.12
77685;BME280;66844;46.092;18.268;2023-07-29T01:57:20;98889.00;;;19.91;73.95
77685;BME280;66844;46.092;18.268;2023-07-29T01:57:52;98891.16;;;19.88;73.84
77685;BME280;66844;46.092;18.268;2023-07-29T01:58:24;98884.94;;;19.87;73.76
77685;BME280;66844;46.092;18.268;2023-07-29T01:58:56;98890.63;;;19.84;73.92
77685;BME280;66844;46.092;18.268;2023-07-29T01:59:28;98881.34;;;19.78;73.81
77685;BME280;66844;46.092;18.268;2023-07-29T02:00:01;98892.13;;;19.78;73.61
77685;BME280;66844;46.092;18.268;2023-07-29T02:00:33;98891.63;;;19.75;73.24
77685;BME280;66844;46.092;18.268;2023-07-29T02:01:05;98885.50;;;19.73;73.75
77685;BME280;66844;46.092;18.268;2023-07-29T02:01:37;98887.53;;;19.71;73.27
77685;BME280;66844;46.092;18.268;2023-07-29T02:02:09;98886.03;;;19.68;73.52
77685;BME280;66844;46.092;18.268;2023-07-29T02:02:41;98888.72;;;19.68;73.41
77685;BME280;66844;46.092;18.268;2023-07-29T02:03:13;98888.19;;;19.65;74.23
77685;BME280;66844;46.092;18.268;2023-07-29T02:03:45;98878.81;;;19.51;74.35
77685;BME280;66844;46.092;18.268;2023-07-29T02:04:17;98880.00;;;19.49;74.71
77685;BME280;66844;46.092;18.268;2023-07-29T02:04:49;98880.75;;;19.41;74.59
77685;BME280;66844;46.092;18.268;2023-07-29T02:05:23;98892.00;;;19.36;74.86
77685;BME280;66844;46.092;18.268;2023-07-29T02:05:55;98880.69;;;19.33;75.21
77685;BME280;66844;46.092;18.268;2023-07-29T02:06:27;98882.88;;;19.29;75.38
77685;BME280;66844;46.092;18.268;2023-07-29T02:06:59;98883.19;;;19.26;74.96
77685;BME280;66844;46.092;18.268;2023-07-29T02:07:31;98879.09;;;19.22;74.88
77685;BME280;66844;46.092;18.268;2023-07-29T02:08:03;98880.09;;;19.21;75.27
77685;BME280;66844;46.092;18.268;2023-07-29T02:08:35;98880.44;;;19.18;74.07
77685;BME280;66844;46.092;18.268;2023-07-29T02:09:07;98877.06;;;19.16;74.54
77685;BME280;66844;46.092;18.268;2023-07-29T02:09:39;98878.06;;;19.15;74.93
77685;BME280;66844;46.092;18.268;2023-07-29T02:10:11;98880.75;;;19.15;74.35
77685;BME280;66844;46.092;18.268;2023-07-29T02:10:43;98887.59;;;19.10;74.52
77685;BME280;66844;46.092;18.268;2023-07-29T02:11:17;98890.28;;;19.10;74.90
77685;BME280;66844;46.092;18.268;2023-07-29T02:11:49;98883.22;;;19.09;74.58
77685;BME280;66844;46.092;18.268;2023-07-29T02:12:20;98890.16;;;19.11;74.67
77685;BME280;66844;46.092;18.268;2023-07-29T02:12:52;98893.69;;;19.12;75.08
77685;BME280;66844;46.092;18.268;2023-07-29T02:13:24;98895.00;;;19.08;75.14
77685;BME280;66844;46.092;18.268;2023-07-29T02:13:57;98887.56;;;19.02;75.26
77685;BME280;66844;46.092;18.268;2023-07-29T02:14:29;98887.84;;;18.99;75.31
77685;BME280;66844;46.092;18.268;2023-07-29T02:15:01;98889.88;;;18.97;75.45
77685;BME280;66844;46.092;18.268;2023-07-29T02:15:33;98890.53;;;18.99;75.01
77685;BME280;66844;46.092;18.268;2023-07-29T02:16:05;98897.94;;;18.97;75.61
77685;BME280;66844;46.092;18.268;2023-07-29T02:16:37;98890.88;;;18.96;75.38
77685;BME280;66844;46.092;18.268;2023-07-29T02:17:11;98890.72;;;18.97;75.38
77685;BME280;66844;46.092;18.268;2023-07-29T02:17:43;98885.47;;;18.96;75.64
77685;BME280;66844;46.092;18.268;2023-07-29T02:18:15;98885.78;;;18.93;75.99
77685;BME280;66844;46.092;18.268;2023-07-29T02:18:47;98885.25;;;18.89;75.52
77685;BME280;66844;46.092;18.268;2023-07-29T02:19:19;98884.72;;;18.85;76.21
77685;BME280;66844;46.092;18.268;2023-07-29T02:19:51;98886.56;;;18.85;75.93
77685;BME280;66844;46.092;18.268;2023-07-29T02:20:23;98887.56;;;18.84;76.23
77685;BME280;66844;46.092;18.268;2023-07-29T02:20:55;98882.88;;;18.86;76.35
77685;BME280;66844;46.092;18.268;2023-07-29T02:21:27;98891.50;;;18.89;76.49
77685;BME280;66844;46.092;18.268;2023-07-29T02:21:59;98883.88;;;18.85;76.58
77685;BME280;66844;46.092;18.268;2023-07-29T02:22:31;98880.78;;;18.80;76.88
77685;BME280;66844;46.092;18.268;2023-07-29T02:23:02;98882.66;;;18.79;76.97
77685;BME280;66844;46.092;18.268;2023-07-29T02:23:34;98885.88;;;18.83;77.38
77685;BME280;66844;46.092;18.268;2023-07-29T02:24:06;98882.41;;;18.91;76.82
77685;BME280;66844;46.092;18.268;2023-07-29T02:24:38;98888.34;;;18.94;77.12
77685;BME280;66844;46.092;18.268;2023-07-29T02:25:10;98892.56;;;18.97;77.06
77685;BME280;66844;46.092;18.268;2023-07-29T02:25:42;98887.84;;;18.99;76.16
77685;BME280;66844;46.092;18.268;2023-07-29T02:26:14;98889.22;;;19.03;76.60
77685;BME280;66844;46.092;18.268;2023-07-29T02:26:46;98890.09;;;19.03;76.37
77685;BME280;66844;46.092;18.268;2023-07-29T02:27:18;98888.03;;;18.97;76.67
77685;BME280;66844;46.092;18.268;2023-07-29T02:27:50;98891.03;;;18.94;76.60
77685;BME280;66844;46.092;18.268;2023-07-29T02:28:22;98894.19;;;18.89;76.59
77685;BME280;66844;46.092;18.268;2023-07-29T02:28:54;98890.97;;;18.86;76.44
77685;BME280;66844;46.092;18.268;2023-07-29T02:29:26;98891.81;;;18.86;77.07
77685;BME280;66844;46.092;18.268;2023-07-29T02:29:58;98887.41;;;18.85;76.53
77685;BME280;66844;46.092;18.268;2023-07-29T02:30:30;98895.09;;;18.80;76.74
77685;BME280;66844;46.092;18.268;2023-07-29T02:31:28;98891.72;;;18.78;76.26
77685;BME280;66844;46.092;18.268;2023-07-29T02:32:00;98898.50;;;18.82;76.73
77685;BME280;66844;46.092;18.268;2023-07-29T02:32:32;98885.50;;;18.78;76.92
77685;BME280;66844;46.092;18.268;2023-07-29T02:33:04;98891.19;;;18.75;77.27
77685;BME280;66844;46.092;18.268;2023-07-29T02:33:37;98891.66;;;18.70;77.41
77685;BME280;66844;46.092;18.268;2023-07-29T02:34:09;98886.72;;;18.66;78.10
77685;BME280;66844;46.092;18.268;2023-07-29T02:34:40;98891.44;;;18.64;77.75
77685;BME280;66844;46.092;18.268;2023-07-29T02:35:12;98883.66;;;18.61;77.87
77685;BME280;66844;46.092;18.268;2023-07-29T02:35:44;98889.03;;;18.61;77.92
77685;BME280;66844;46.092;18.268;2023-07-29T02:36:17;98892.88;;;18.58;78.16
77685;BME280;66844;46.092;18.268;2023-07-29T02:36:49;98894.72;;;18.58;77.98
77685;BME280;66844;46.092;18.268;2023-07-29T02:37:21;98892.88;;;18.58;77.30
77685;BME280;66844;46.092;18.268;2023-07-29T02:37:53;98895.56;;;18.58;77.13
77685;BME280;66844;46.092;18.268;2023-07-29T02:38:25;98888.03;;;18.62;77.11
77685;BME280;66844;46.092;18.268;2023-07-29T02:38:57;98894.13;;;18.64;77.55
77685;BME280;66844;46.092;18.268;2023-07-29T02:39:29;98896.81;;;18.64;77.57
77685;BME280;66844;46.092;18.268;2023-07-29T02:40:01;98900.38;;;18.64;77.22
77685;BME280;66844;46.092;18.268;2023-07-29T02:40:33;98900.50;;;18.63;77.76
77685;BME280;66844;46.092;18.268;2023-07-29T02:41:05;98900.50;;;18.63;77.67
77685;BME280;66844;46.092;18.268;2023-07-29T02:41:37;98906.56;;;18.65;77.34
77685;BME280;66844;46.092;18.268;2023-07-29T02:42:09;98904.91;;;18.64;77.24
77685;BME280;66844;46.092;18.268;2023-07-29T02:42:41;98900.19;;;18.66;77.04
77685;BME280;66844;46.092;18.268;2023-07-29T02:43:12;98904.91;;;18.64;77.40
77685;BME280;66844;46.092;18.268;2023-07-29T02:43:48;98903.19;;;18.63;77.17
77685;BME280;66844;46.092;18.268;2023-07-29T02:44:20;98908.59;;;18.63;77.66
77685;BME280;66844;46.092;18.268;2023-07-29T02:44:52;98907.59;;;18.64;77.07
77685;BME280;66844;46.092;18.268;2023-07-29T02:45:24;98905.88;;;18.63;77.64
77685;BME280;66844;46.092;18.268;2023-07-29T02:45:56;98909.56;;;18.62;77.39
77685;BME280;66844;46.092;18.268;2023-07-29T02:46:28;98905.03;;;18.62;77.47
77685;BME280;66844;46.092;18.268;2023-07-29T02:47:00;98902.34;;;18.62;77.03
77685;BME280;66844;46.092;18.268;2023-07-29T02:47:32;98905.88;;;18.63;77.62
77685;BME280;66844;46.092;18.268;2023-07-29T02:48:04;98913.13;;;18.62;77.24
77685;BME280;66844;46.092;18.268;2023-07-29T02:48:36;98911.28;;;18.63;77.19
77685;BME280;66844;46.092;18.268;2023-07-29T02:49:08;98911.28;;;18.63;77.52
77685;BME280;66844;46.092;18.268;2023-07-29T02:49:40;98903.06;;;18.64;77.20
77685;BME280;66844;46.092;18.268;2023-07-29T02:50:12;98905.75;;;18.64;77.02
77685;BME280;66844;46.092;18.268;2023-07-29T02:50:44;98907.41;;;18.65;77.41
77685;BME280;66844;46.092;18.268;2023-07-29T02:51:16;98904.72;;;18.65;77.58
77685;BME280;66844;46.092;18.268;2023-07-29T02:51:48;98907.41;;;18.65;77.82
77685;BME280;66844;46.092;18.268;2023-07-29T02:52:20;98905.59;;;18.66;77.76
77685;BME280;66844;46.092;18.268;2023-07-29T02:52:51;98898.34;;;18.66;77.58
77685;BME280;66844;46.092;18.268;2023-07-29T02:53:24;98900.06;;;18.67;77.17
77685;BME280;66844;46.092;18.268;2023-07-29T02:53:56;98903.28;;;18.71;77.08
77685;BME280;66844;46.092;18.268;2023-07-29T02:54:28;98896.19;;;18.70;77.10
77685;BME280;66844;46.092;18.268;2023-07-29T02:55:00;98904.13;;;18.71;77.35
77685;BME280;66844;46.092;18.268;2023-07-29T02:55:32;98900.72;;;18.69;77.85
77685;BME280;66844;46.092;18.268;2023-07-29T02:56:04;98894.81;;;18.66;77.37
77685;BME280;66844;46.092;18.268;2023-07-29T02:56:38;98904.72;;;18.65;77.29
77685;BME280;66844;46.092;18.268;2023-07-29T02:57:10;98897.19;;;18.69;77.19
77685;BME280;66844;46.092;18.268;2023-07-29T02:57:42;98905.81;;;18.72;76.86
77685;BME280;66844;46.092;18.268;2023-07-29T02:58:14;98900.81;;;18.77;76.52
77685;BME280;66844;46.092;18.268;2023-07-29T02:58:46;98905.22;;;18.78;76.51
77685;BME280;66844;46.092;18.268;2023-07-29T02:59:18;98903.06;;;18.82;76.62
77685;BME280;66844;46.092;18.268;2023-07-29T02:59:49;98898.19;;;18.85;76.32